createdAt,value
2018-02-22T00:00:16.465Z,95056.52
2018-02-22T00:02:44.972Z,95054.41
2018-02-22T00:05:13.492Z,95050.92
2018-02-22T00:07:42.822Z,95053.50
2018-02-22T00:10:11.358Z,95053.73
2018-02-22T00:12:39.887Z,95045.49
2018-02-22T00:15:08.408Z,95046.55
2018-02-22T00:17:36.915Z,95042.31
2018-02-22T00:20:05.480Z,95043.73
2018-02-22T00:22:34.021Z,95040.05
2018-02-22T00:25:02.560Z,95038.77
2018-02-22T00:27:31.681Z,95037.55
2018-02-22T00:30:00.219Z,95029.22
2018-02-22T00:32:28.859Z,95031.05
2018-02-22T00:34:57.367Z,95026.22
2018-02-22T00:37:25.872Z,95029.70
2018-02-22T00:39:54.401Z,95028.03
2018-02-22T00:42:22.925Z,95021.66
2018-02-22T00:44:51.499Z,95020.88
2018-02-22T00:47:20.050Z,95018.73
2018-02-22T00:49:48.783Z,95021.05
2018-02-22T00:52:17.307Z,95003.06
2018-02-22T00:54:46.592Z,95010.08
2018-02-22T00:57:15.923Z,95010.95
2018-02-22T00:59:44.461Z,95010.78
2018-02-22T01:02:13.061Z,94997.47
2018-02-22T01:04:42.345Z,94999.78
2018-02-22T01:07:10.883Z,94998.12
2018-02-22T01:09:39.440Z,94996.99
2018-02-22T01:12:07.960Z,94996.51
2018-02-22T01:14:37.240Z,95001.63
2018-02-22T01:17:05.788Z,94998.63
2018-02-22T01:19:35.076Z,95000.37
2018-02-22T01:22:03.652Z,94998.77
2018-02-22T01:24:32.147Z,94989.11
2018-02-22T01:27:01.445Z,94992.33
2018-02-22T01:29:30.739Z,94989.27
2018-02-22T01:31:59.262Z,94988.83
2018-02-22T01:34:27.848Z,94976.70
2018-02-22T01:36:56.383Z,94981.04
2018-02-22T01:39:24.897Z,94980.17
2018-02-22T01:41:53.416Z,94978.31
2018-02-22T01:44:21.977Z,94974.35
2018-02-22T01:46:50.541Z,94973.55
2018-02-22T01:49:19.058Z,94962.80
2018-02-22T01:51:47.583Z,94964.19
2018-02-22T01:54:16.884Z,94964.26
2018-02-22T01:56:46.220Z,94952.43
2018-02-22T01:59:14.802Z,94950.53
2018-02-22T02:01:43.380Z,94952.66
2018-02-22T02:04:11.883Z,94947.95
2018-02-22T02:06:40.413Z,94944.55
2018-02-22T02:09:09.708Z,94941.34
2018-02-22T02:11:38.291Z,94934.42
2018-02-22T02:14:06.812Z,94934.00
2018-02-22T02:16:35.316Z,94937.03
2018-02-22T02:19:03.833Z,94932.82
2018-02-22T02:21:32.402Z,94934.08
2018-02-22T02:24:00.982Z,94932.02
2018-02-22T02:26:29.624Z,94932.56
2018-02-22T02:28:58.234Z,94923.53
2018-02-22T02:31:26.808Z,94929.41
2018-02-22T02:33:55.400Z,94923.95
2018-02-22T02:36:23.957Z,94920.16
2018-02-22T02:38:52.593Z,94916.43
2018-02-22T02:41:21.152Z,94924.31
2018-02-22T02:43:49.733Z,94914.41
2018-02-22T02:46:18.343Z,94913.11
2018-02-22T02:48:46.921Z,94916.81
2018-02-22T02:51:15.541Z,94914.25
2018-02-22T02:53:44.121Z,94919.00
2018-02-22T02:56:12.695Z,94917.75
2018-02-22T02:58:42.048Z,94913.41
2018-02-22T03:01:10.633Z,94914.59
2018-02-22T03:03:39.270Z,94916.18
2018-02-22T03:06:08.590Z,94916.02
2018-02-22T03:08:37.133Z,94910.62
2018-02-22T03:11:05.710Z,94904.13
2018-02-22T03:13:34.278Z,94902.15
2018-02-22T03:16:02.905Z,94899.56
2018-02-22T03:18:32.264Z,94891.78
2018-02-22T03:21:00.834Z,94890.81
2018-02-22T03:23:29.398Z,94892.38
2018-02-22T03:25:57.958Z,94885.67
2018-02-22T03:28:26.588Z,94883.49
2018-02-22T03:30:55.167Z,94885.02
2018-02-22T03:33:23.762Z,94879.35
2018-02-22T03:35:52.316Z,94877.47
2018-02-22T03:38:20.887Z,94874.11
2018-02-22T03:40:49.505Z,94875.53
2018-02-22T03:43:18.080Z,94869.41
2018-02-22T03:45:46.647Z,94869.85
2018-02-22T03:48:15.227Z,94871.08
2018-02-22T03:50:43.787Z,94864.16
2018-02-22T03:53:13.184Z,94858.00
2018-02-22T03:55:42.541Z,94854.57
2018-02-22T03:58:11.118Z,94859.64
2018-02-22T04:00:39.733Z,94853.63
2018-02-22T04:03:08.304Z,94854.45
2018-02-22T04:05:36.931Z,94857.62
2018-02-22T04:08:05.498Z,94856.48
2018-02-22T04:10:34.817Z,94852.92
2018-02-22T04:13:03.446Z,94852.67
2018-02-22T04:15:32.022Z,94852.36
2018-02-22T04:18:00.692Z,94848.44
2018-02-22T04:20:30.122Z,94848.85
2018-02-22T04:22:58.770Z,94847.67
2018-02-22T04:25:27.362Z,94851.25
2018-02-22T04:27:55.983Z,94858.45
2018-02-22T04:30:24.664Z,94852.29
2018-02-22T04:32:53.271Z,94857.81
2018-02-22T04:35:22.626Z,94855.53
2018-02-22T04:37:51.260Z,94854.31
2018-02-22T04:40:20.630Z,94850.17
2018-02-22T04:42:49.291Z,94855.66
2018-02-22T04:45:17.878Z,94845.76
2018-02-22T04:47:46.498Z,94851.70
2018-02-22T04:50:15.123Z,94853.38
2018-02-22T04:52:43.759Z,94846.78
2018-02-22T04:55:12.410Z,94849.59
2018-02-22T04:57:40.981Z,94848.73
2018-02-22T05:00:09.598Z,94844.34
2018-02-22T05:02:38.277Z,94842.58
2018-02-22T05:05:06.899Z,94848.56
2018-02-22T05:07:36.303Z,94841.57
2018-02-22T05:10:05.694Z,94837.16
2018-02-22T05:12:34.321Z,94838.72
2018-02-22T05:15:02.917Z,94835.17
2018-02-22T05:17:31.513Z,94837.51
2018-02-22T05:20:00.159Z,94835.52
2018-02-22T05:22:28.782Z,94829.16
2018-02-22T05:24:57.409Z,94830.45
2018-02-22T05:27:26.795Z,94831.48
2018-02-22T05:29:55.422Z,94830.20
2018-02-22T05:32:24.057Z,94831.23
2018-02-22T05:34:52.690Z,94828.08
2018-02-22T05:37:21.301Z,94826.02
2018-02-22T05:39:49.899Z,94823.03
2018-02-22T05:42:18.562Z,94825.41
2018-02-22T05:44:47.224Z,94827.63
2018-02-22T05:47:15.863Z,94826.86
2018-02-22T05:49:44.463Z,94826.34
2018-02-22T05:52:13.843Z,94817.72
2018-02-22T05:54:42.454Z,94821.75
2018-02-22T05:57:12.033Z,94821.55
2018-02-22T05:59:40.613Z,94818.56
2018-02-22T06:02:09.213Z,94822.45
2018-02-22T06:04:37.826Z,94829.36
2018-02-22T06:07:06.495Z,94829.02
2018-02-22T06:09:35.905Z,94830.30
2018-02-22T06:12:05.270Z,94832.14
2018-02-22T06:14:33.884Z,94827.56
2018-02-22T06:17:03.245Z,94836.31
2018-02-22T06:19:31.906Z,94838.30
2018-02-22T06:22:00.683Z,94844.69
2018-02-22T06:24:29.543Z,94848.75
2018-02-22T06:26:59.083Z,94844.61
2018-02-22T06:29:27.834Z,94849.80
2018-02-22T06:31:57.432Z,94850.25
2018-02-22T06:34:26.166Z,94851.32
2018-02-22T06:36:54.933Z,94850.48
2018-02-22T06:39:23.633Z,94846.73
2018-02-22T06:41:52.391Z,94858.06
2018-02-22T06:44:21.984Z,94860.47
2018-02-22T06:46:50.733Z,94857.93
2018-02-22T06:49:19.458Z,94859.25
2018-02-22T06:51:48.158Z,94852.92
2018-02-22T06:54:17.701Z,94865.43
2018-02-22T06:56:46.557Z,94854.21
2018-02-22T06:59:16.184Z,94868.97
2018-02-22T07:01:44.938Z,94866.41
2018-02-22T07:04:14.501Z,94867.47
2018-02-22T07:06:43.366Z,94859.39
2018-02-22T07:09:11.984Z,94870.52
2018-02-22T07:11:40.624Z,94865.83
2018-02-22T07:14:09.814Z,94872.03
2018-02-22T07:16:39.173Z,94871.33
2018-02-22T07:19:07.786Z,94876.05
2018-02-22T07:21:37.193Z,94876.53
2018-02-22T07:24:06.591Z,94874.58
2018-02-22T07:26:35.946Z,94867.00
2018-02-22T07:29:04.581Z,94864.63
2018-02-22T07:31:33.975Z,94876.80
2018-02-22T07:34:02.625Z,94880.30
2018-02-22T07:36:31.287Z,94870.70
2018-02-22T07:38:59.945Z,94876.73
2018-02-22T07:41:29.303Z,94883.97
2018-02-22T07:43:57.906Z,94883.67
2018-02-22T07:46:26.537Z,94885.67
2018-02-22T07:48:55.205Z,94887.34
2018-02-22T07:51:23.828Z,94888.91
2018-02-22T07:53:52.432Z,94892.32
2018-02-22T07:56:21.093Z,94887.09
2018-02-22T07:58:49.712Z,94890.52
2018-02-22T08:01:18.325Z,94889.14
2018-02-22T08:03:46.968Z,94889.02
2018-02-22T08:06:15.640Z,94888.24
2018-02-22T08:08:44.290Z,94897.14
2018-02-22T08:11:13.913Z,94889.52
2018-02-22T08:13:42.581Z,94890.07
2018-02-22T08:16:11.266Z,94891.55
2018-02-22T08:18:39.922Z,94886.95
2018-02-22T08:21:09.369Z,94891.30
2018-02-22T08:23:38.038Z,94885.48
2018-02-22T08:26:06.731Z,94884.26
2018-02-22T08:28:35.452Z,94889.30
2018-02-22T08:31:04.074Z,94892.26
2018-02-22T08:33:33.521Z,94884.41
2018-02-22T08:36:02.124Z,94885.57
2018-02-22T08:38:30.788Z,94880.97
2018-02-22T08:40:59.420Z,94877.23
2018-02-22T08:43:28.092Z,94875.81
2018-02-22T08:45:56.782Z,94882.14
2018-02-22T08:48:26.192Z,94882.61
2018-02-22T08:50:55.646Z,94862.64
2018-02-22T08:53:24.285Z,94865.77
2018-02-22T08:55:53.662Z,94864.51
2018-02-22T08:58:22.336Z,94871.41
2018-02-22T09:00:51.041Z,94871.50
2018-02-22T09:03:19.707Z,94868.69
2018-02-22T09:05:48.367Z,94864.13
2018-02-22T09:08:17.003Z,94870.22
2018-02-22T09:10:45.625Z,94868.77
2018-02-22T09:13:14.280Z,94859.38
2018-02-22T09:15:43.717Z,94864.52
2018-02-22T09:18:12.410Z,94858.33
2018-02-22T09:20:41.032Z,94864.87
2018-02-22T09:23:09.661Z,94860.07
2018-02-22T09:25:38.296Z,94862.67
2018-02-22T09:28:07.027Z,94858.36
2018-02-22T09:30:35.684Z,94856.41
2018-02-22T09:33:05.082Z,94862.95
2018-02-22T09:35:33.711Z,94856.59
2018-02-22T09:38:02.369Z,94854.77
2018-02-22T09:40:31.783Z,94853.32
2018-02-22T09:43:01.246Z,94856.23
2018-02-22T09:45:29.923Z,94851.36
2018-02-22T09:47:58.591Z,94847.63
2018-02-22T09:50:27.206Z,94856.16
2018-02-22T09:52:55.942Z,94849.03
2018-02-22T09:55:30.868Z,94850.01
2018-02-22T09:57:59.528Z,94851.46
2018-02-22T10:00:28.917Z,94847.28
2018-02-22T10:02:57.553Z,94846.09
2018-02-22T10:05:26.176Z,94854.65
2018-02-22T10:07:54.882Z,94855.01
2018-02-22T10:10:24.356Z,94848.04
2018-02-22T10:12:53.026Z,94855.03
2018-02-22T10:15:21.687Z,94849.24
2018-02-22T10:17:50.306Z,94851.95
2018-02-22T10:20:18.943Z,94850.31
2018-02-22T10:22:47.646Z,94858.09
2018-02-22T10:25:16.274Z,94859.13
2018-02-22T10:27:44.963Z,94851.25
2018-02-22T10:30:13.696Z,94850.09
2018-02-22T10:32:43.082Z,94854.41
2018-02-22T10:35:12.560Z,94859.15
2018-02-22T10:37:41.953Z,94859.98
2018-02-22T10:40:10.680Z,94854.67
2018-02-22T10:42:39.306Z,94858.58
2018-02-22T10:45:07.913Z,94854.11
2018-02-22T10:47:36.606Z,94858.34
2018-02-22T10:50:06.046Z,94853.77
2018-02-22T10:52:35.449Z,94853.58
2018-02-22T10:55:04.069Z,94852.20
2018-02-22T10:57:33.483Z,94856.64
2018-02-22T11:00:02.149Z,94850.22
2018-02-22T11:02:36.297Z,94852.06
2018-02-22T11:05:05.000Z,94853.58
2018-02-22T11:07:34.374Z,94855.09
2018-02-22T11:10:02.992Z,94844.44
2018-02-22T11:12:32.386Z,94842.44
2018-02-22T11:15:01.734Z,94850.88
2018-02-22T11:17:30.415Z,94852.25
2018-02-22T11:19:59.045Z,94847.80
2018-02-22T11:22:27.671Z,94850.63
2018-02-22T11:24:56.463Z,94847.36
2018-02-22T11:27:25.111Z,94851.72
2018-02-22T11:29:54.580Z,94844.43
2018-02-22T11:32:23.220Z,94837.52
2018-02-22T11:34:51.871Z,94842.73
2018-02-22T11:37:20.480Z,94833.11
2018-02-22T11:39:49.139Z,94834.30
2018-02-22T11:42:17.810Z,94835.85
2018-02-22T11:44:46.398Z,94838.09
2018-02-22T11:47:15.054Z,94832.63
2018-02-22T11:49:44.513Z,94828.42
2018-02-22T11:52:13.923Z,94830.56
2018-02-22T11:54:42.604Z,94826.86
2018-02-22T11:57:12.018Z,94824.63
2018-02-22T11:59:40.645Z,94810.55
2018-02-22T12:02:09.321Z,94811.48
2018-02-22T12:04:38.100Z,94814.98
2018-02-22T12:07:07.641Z,94818.05
2018-02-22T12:09:36.334Z,94814.50
2018-02-22T12:12:06.101Z,94809.51
2018-02-22T12:14:34.743Z,94805.30
2018-02-22T12:17:03.769Z,94798.02
2018-02-22T12:19:32.880Z,94794.27
2018-02-22T12:22:02.467Z,94794.77
2018-02-22T12:24:31.322Z,94798.80
2018-02-22T12:27:01.091Z,94802.73
2018-02-22T12:29:29.937Z,94796.10
2018-02-22T12:31:59.549Z,94805.62
2018-02-22T12:34:28.284Z,94798.64
2018-02-22T12:36:56.977Z,94802.92
2018-02-22T12:39:25.658Z,94797.30
2018-02-22T12:41:54.353Z,94798.93
2018-02-22T12:44:23.044Z,94789.11
2018-02-22T12:46:51.749Z,94796.02
2018-02-22T12:49:21.225Z,94795.70
2018-02-22T12:51:49.973Z,94797.52
2018-02-22T12:54:18.666Z,94789.27
2018-02-22T12:56:47.413Z,94794.73
2018-02-22T12:59:19.602Z,94796.41
2018-02-22T13:01:48.332Z,94793.36
2018-02-22T13:04:17.038Z,94792.15
2018-02-22T13:06:45.715Z,94789.94
2018-02-22T13:09:14.426Z,94791.09
2018-02-22T13:11:43.840Z,94798.34
2018-02-22T13:14:12.549Z,94792.98
2018-02-22T13:16:41.200Z,94794.98
2018-02-22T13:19:09.828Z,94785.82
2018-02-22T13:21:38.441Z,94794.97
2018-02-22T13:24:07.045Z,94789.48
2018-02-22T13:26:36.470Z,94791.45
2018-02-22T13:29:05.098Z,94791.16
2018-02-22T13:31:33.743Z,94797.98
2018-02-22T13:34:20.159Z,94791.49
2018-02-22T13:36:48.805Z,94795.00
2018-02-22T13:39:18.231Z,94791.28
2018-02-22T13:41:46.913Z,94791.17
2018-02-22T13:44:33.194Z,94784.19
2018-02-22T13:47:02.680Z,94791.66
2018-02-22T13:49:49.019Z,94782.82
2018-02-22T13:52:17.703Z,94794.14
2018-02-22T13:54:47.105Z,94790.19
2018-02-22T13:57:20.377Z,94794.39
2018-02-22T13:59:49.736Z,94787.82
2018-02-22T14:02:29.166Z,94793.67
2018-02-22T14:04:57.847Z,94785.44
2018-02-22T14:07:26.511Z,94779.63
2018-02-22T14:09:55.124Z,94779.77
2018-02-22T14:12:23.827Z,94782.05
2018-02-22T14:14:52.468Z,94777.43
2018-02-22T14:17:21.244Z,94786.27
2018-02-22T14:19:49.942Z,94784.34
2018-02-22T14:22:18.733Z,94788.01
2018-02-22T14:24:47.398Z,94788.73
2018-02-22T14:27:16.067Z,94786.16
2018-02-22T14:29:45.459Z,94791.45
2018-02-22T14:32:14.190Z,94794.59
2018-02-22T14:34:42.810Z,94788.98
2018-02-22T14:37:11.439Z,94789.70
2018-02-22T14:39:40.775Z,94783.98
2018-02-22T14:42:10.345Z,94799.93
2018-02-22T14:44:39.045Z,94793.72
2018-02-22T14:47:07.672Z,94789.04
2018-02-22T14:49:36.276Z,94791.46
2018-02-22T14:52:04.883Z,94793.68
2018-02-22T14:54:33.455Z,94791.95
2018-02-22T14:57:02.911Z,94796.26
2018-02-22T14:59:31.492Z,94792.19
2018-02-22T15:02:00.143Z,94791.90
2018-02-22T15:04:28.780Z,94794.70
2018-02-22T15:06:57.416Z,94797.87
2018-02-22T15:09:26.116Z,94794.64
2018-02-22T15:11:54.755Z,94788.67
2018-02-22T15:14:24.140Z,94798.19
2018-02-22T15:16:52.760Z,94805.75
2018-02-22T15:19:22.130Z,94809.44
2018-02-22T15:21:50.799Z,94810.80
2018-02-22T15:24:19.475Z,94813.08
2018-02-22T15:26:48.100Z,94803.34
2018-02-22T15:29:17.474Z,94804.52
2018-02-22T15:31:47.086Z,94814.29
2018-02-22T15:34:15.781Z,94816.36
2018-02-22T15:36:44.385Z,94816.64
2018-02-22T15:39:13.022Z,94821.97
2018-02-22T15:41:41.648Z,94827.69
2018-02-22T15:44:11.028Z,94820.84
2018-02-22T15:46:39.727Z,94827.73
2018-02-22T15:49:13.063Z,94830.87
2018-02-22T15:51:41.840Z,94830.90
2018-02-22T15:54:10.538Z,94831.58
2018-02-22T15:56:39.163Z,94828.33
2018-02-22T15:59:07.789Z,94835.06
2018-02-22T16:01:36.553Z,94836.03
2018-02-22T16:04:05.275Z,94839.30
2018-02-22T16:06:33.909Z,94840.09
2018-02-22T16:09:02.532Z,94834.92
2018-02-22T16:11:31.225Z,94843.52
2018-02-22T16:13:59.854Z,94846.23
2018-02-22T16:16:28.496Z,94846.88
2018-02-22T16:18:58.062Z,94845.09
2018-02-22T16:21:26.747Z,94846.63
2018-02-22T16:23:55.403Z,94848.36
2018-02-22T16:26:24.011Z,94851.71
2018-02-22T16:28:52.647Z,94845.28
2018-02-22T16:31:21.208Z,94846.88
2018-02-22T16:33:50.594Z,94858.98
2018-02-22T16:36:19.949Z,94855.67
2018-02-22T16:38:49.411Z,94855.86
2018-02-22T16:41:18.056Z,94862.64
2018-02-22T16:43:46.643Z,94860.91
2018-02-22T16:46:15.220Z,94865.56
2018-02-22T16:48:43.869Z,94873.59
2018-02-22T16:51:12.442Z,94876.27
2018-02-22T16:53:41.012Z,94876.23
2018-02-22T17:58:05.735Z,94914.27
2018-02-22T18:00:35.069Z,94918.25
2018-02-22T18:03:03.605Z,94904.02
2018-02-22T18:05:32.831Z,94907.42
2018-02-22T18:08:02.147Z,94898.84
2018-02-22T18:10:30.702Z,94900.50
2018-02-22T18:13:00.016Z,94912.14
2018-02-22T18:15:28.619Z,94909.73
2018-02-22T18:17:57.192Z,94906.72
2018-02-22T18:20:25.759Z,94910.63
2018-02-22T18:22:54.370Z,94908.25
2018-02-22T18:25:22.933Z,94909.44
2018-02-22T18:27:51.474Z,94915.42
2018-02-22T18:30:19.999Z,94920.50
2018-02-22T18:32:48.622Z,94923.81
2018-02-22T18:35:17.190Z,94927.12
2018-02-22T18:37:51.180Z,94925.83
2018-02-22T18:40:25.215Z,94924.84
2018-02-22T18:42:53.760Z,94922.36
2018-02-22T18:45:22.354Z,94931.08
2018-02-22T18:47:50.917Z,94925.58
2018-02-22T18:50:20.191Z,94927.22
2018-02-22T18:52:48.837Z,94922.55
2018-02-22T18:55:17.401Z,94931.33
2018-02-22T18:57:45.909Z,94929.17
2018-02-22T19:00:14.407Z,94935.70
2018-02-22T19:02:42.921Z,94930.11
2018-02-22T19:05:12.358Z,94942.26
2018-02-22T19:07:40.917Z,94935.80
2018-02-22T19:10:10.335Z,94943.00
2018-02-22T19:12:39.022Z,94946.50
2018-02-22T19:15:08.016Z,94946.05
2018-02-22T19:17:36.771Z,94951.34
2018-02-22T19:20:05.288Z,94957.42
2018-02-22T19:22:33.833Z,94960.89
2018-02-22T19:25:02.388Z,94956.14
2018-02-22T19:27:30.947Z,94956.59
2018-02-22T19:29:59.545Z,94964.33
2018-02-22T19:32:28.092Z,94960.50
2018-02-22T19:34:56.656Z,94961.05
2018-02-22T19:37:26.003Z,94962.72
2018-02-22T19:39:54.565Z,94955.17
2018-02-22T19:42:23.332Z,94952.31
2018-02-22T19:44:52.640Z,94954.21
2018-02-22T19:47:21.188Z,94952.31
2018-02-22T19:49:49.805Z,94953.69
2018-02-22T19:52:19.126Z,94946.46
2018-02-22T19:54:47.794Z,94945.24
2018-02-22T19:57:16.356Z,94948.88
2018-02-22T19:59:44.923Z,94945.33
2018-02-22T20:02:13.493Z,94946.63
2018-02-22T20:04:42.048Z,94945.45
2018-02-22T20:07:10.641Z,94943.18
2018-02-22T20:09:39.199Z,94940.64
2018-02-22T20:12:07.701Z,94950.31
2018-02-22T20:14:36.913Z,94946.17
2018-02-22T20:17:05.605Z,94946.73
2018-02-22T20:19:34.218Z,94943.20
2018-02-22T20:22:02.793Z,94948.66
2018-02-22T20:24:31.375Z,94947.37
2018-02-22T20:26:59.937Z,94944.84
2018-02-22T20:29:28.475Z,94940.98
2018-02-22T20:31:57.124Z,94945.30
2018-02-22T20:34:26.507Z,94941.75
2018-02-22T20:36:55.108Z,94944.84
2018-02-22T20:39:23.690Z,94947.77
2018-02-22T20:41:52.272Z,94953.06
2018-02-22T20:44:20.892Z,94962.94
2018-02-22T20:46:49.882Z,94962.28
2018-02-22T20:49:18.458Z,94958.53
2018-02-22T20:51:57.021Z,94955.86
2018-02-22T20:54:25.662Z,94962.83
2018-02-22T20:56:54.267Z,94966.41
2018-02-22T21:34:18.697Z,94964.81
2018-02-22T21:36:47.955Z,94965.96
2018-02-22T21:39:16.665Z,94962.75
2018-02-22T21:41:45.395Z,94964.94
2018-02-22T21:44:14.512Z,94963.41
2018-02-22T21:46:44.012Z,94965.51
2018-02-22T21:49:12.635Z,94969.27
2018-02-22T21:51:41.387Z,94968.88
2018-02-22T21:54:10.108Z,94969.20
2018-02-22T21:56:39.743Z,94968.14
2018-02-22T21:59:09.642Z,94969.96
2018-02-22T22:01:39.787Z,94959.50
2018-02-22T22:04:08.518Z,94962.50
2018-02-22T22:06:37.215Z,94965.36
2018-02-22T22:09:05.973Z,94967.91
2018-02-22T22:11:34.632Z,94958.16
2018-02-22T22:14:04.117Z,94958.94
2018-02-22T22:16:32.844Z,94960.46
2018-02-22T22:19:03.022Z,94958.02
2018-02-22T22:21:32.384Z,94951.41
2018-02-22T22:24:04.056Z,94954.09
2018-02-22T22:26:32.810Z,94951.66
2018-02-22T22:29:02.072Z,94946.78
2018-02-22T22:31:30.777Z,94953.31
2018-02-22T22:34:00.185Z,94943.44
2018-02-22T22:36:29.620Z,94945.80
2018-02-22T22:38:58.271Z,94944.34
2018-02-22T22:41:27.653Z,94948.94
2018-02-22T22:43:59.117Z,94952.88
2018-02-22T22:46:28.554Z,94951.03
2018-02-22T22:48:57.192Z,94958.70
2018-02-22T22:51:25.859Z,94960.16
2018-02-22T22:53:55.091Z,94963.36
2018-02-22T22:56:23.777Z,94960.14
2018-02-22T22:58:54.050Z,94967.06
2018-02-22T23:01:22.850Z,94968.38
2018-02-22T23:03:51.514Z,94966.38
2018-02-22T23:06:20.194Z,94966.23
2018-02-22T23:08:48.933Z,94969.00
2018-02-22T23:11:17.609Z,94965.77
2018-02-22T23:13:47.415Z,94967.38
2018-02-22T23:16:16.110Z,94966.78
2018-02-22T23:18:44.775Z,94967.70
2018-02-22T23:21:13.467Z,94967.00
2018-02-22T23:23:42.852Z,94960.81
2018-02-22T23:26:11.650Z,94966.50
2018-02-22T23:28:41.708Z,94963.48
2018-02-22T23:31:12.008Z,94962.78
2018-02-22T23:33:42.487Z,94962.73
2018-02-22T23:36:11.227Z,94966.79
2018-02-22T23:38:40.034Z,94969.13
2018-02-22T23:41:12.805Z,94957.89
2018-02-22T23:43:42.276Z,94956.64
2018-02-22T23:46:10.983Z,94961.30
2018-02-22T23:48:39.615Z,94948.98
2018-02-22T23:51:08.332Z,94955.30
2018-02-22T23:53:37.070Z,94946.00
2018-02-22T23:56:11.261Z,94948.42
2018-02-22T23:58:41.202Z,94948.57
